createdAt,value
2023-01-28T00:00:09.686Z,101043.35
2023-01-28T00:02:57.817Z,101044.66
2023-01-28T00:05:26.046Z,101045.94
2023-01-28T00:07:53.910Z,101044.70
2023-01-28T00:10:21.766Z,101050.93
2023-01-28T00:12:51.060Z,101054.25
2023-01-28T00:15:19.105Z,101057.31
2023-01-28T00:17:47.032Z,101053.84
2023-01-28T00:20:15.152Z,101054.66
2023-01-28T00:22:51.824Z,101058.61
2023-01-28T00:25:20.090Z,101058.05
2023-01-28T00:27:49.609Z,101057.68
2023-01-28T00:30:19.436Z,101056.23
2023-01-28T00:32:48.666Z,101054.20
2023-01-28T00:35:16.991Z,101050.42
2023-01-28T00:37:48.316Z,101052.85
2023-01-28T00:40:16.927Z,101055.82
2023-01-28T00:42:44.842Z,101055.52
2023-01-28T00:45:13.472Z,101058.44
2023-01-28T00:47:41.481Z,101055.74
2023-01-28T00:50:10.043Z,101056.40
2023-01-28T00:52:38.558Z,101055.44
2023-01-28T00:55:07.300Z,101053.70
2023-01-28T00:57:35.242Z,101054.15
2023-01-28T01:00:05.969Z,101051.40
2023-01-28T01:02:33.981Z,101051.98
2023-01-28T01:05:02.536Z,101053.81
2023-01-28T01:07:43.908Z,101048.64
2023-01-28T01:10:15.855Z,101048.53
2023-01-28T01:12:47.811Z,101049.50
2023-01-28T01:15:17.604Z,101055.65
2023-01-28T01:17:48.709Z,101053.46
2023-01-28T01:20:22.361Z,101054.68
2023-01-28T01:22:52.170Z,101052.02
2023-01-28T01:25:20.505Z,101053.24
2023-01-28T01:27:50.215Z,101051.71
2023-01-28T01:30:19.217Z,101053.04
2023-01-28T01:32:47.815Z,101051.90
2023-01-28T01:35:16.443Z,101050.69
2023-01-28T01:37:45.111Z,101052.00
2023-01-28T01:40:13.352Z,101047.70
2023-01-28T01:42:41.941Z,101048.42
2023-01-28T01:45:17.821Z,101045.50
2023-01-28T01:48:03.971Z,101045.34
2023-01-28T01:50:39.759Z,101050.81
2023-01-28T01:53:11.592Z,101051.17
2023-01-28T01:55:43.426Z,101049.70
2023-01-28T01:58:17.747Z,101051.10
2023-01-28T02:00:46.576Z,101053.95
2023-01-28T02:03:17.856Z,101048.44
2023-01-28T02:05:45.694Z,101051.10
2023-01-28T02:08:23.154Z,101050.35
2023-01-28T02:10:59.069Z,101054.13
2023-01-28T02:13:31.586Z,101056.91
2023-01-28T02:16:02.618Z,101058.40
2023-01-28T02:18:32.861Z,101057.07
2023-01-28T02:21:19.232Z,101054.88
2023-01-28T02:24:05.860Z,101059.00
2023-01-28T02:26:36.908Z,101056.42
2023-01-28T02:29:17.194Z,101055.17
2023-01-28T02:31:52.816Z,101052.67
2023-01-28T02:34:43.301Z,101048.66
2023-01-28T02:37:21.594Z,101053.33
2023-01-28T02:39:55.329Z,101053.14
2023-01-28T02:42:29.879Z,101050.14
2023-01-28T02:44:58.643Z,101050.48
2023-01-28T02:47:56.598Z,101050.88
2023-01-28T02:50:32.464Z,101051.58
2023-01-28T02:53:41.273Z,101060.46
2023-01-28T02:56:15.363Z,101057.60
2023-01-28T02:58:52.849Z,101059.63
2023-01-28T03:01:43.090Z,101061.02
2023-01-28T03:04:34.639Z,101061.78
2023-01-28T03:07:07.065Z,101065.48
2023-01-28T03:09:37.938Z,101065.27
2023-01-28T03:12:29.360Z,101063.73
2023-01-28T03:15:35.433Z,101065.20
2023-01-28T03:18:43.749Z,101059.77
2023-01-28T03:21:41.305Z,101061.63
2023-01-28T03:24:45.228Z,101062.66
2023-01-28T03:27:47.845Z,101063.48
2023-01-28T03:30:41.788Z,101064.14
2023-01-28T03:33:33.945Z,101066.86
2023-01-28T03:36:21.173Z,101061.84
2023-01-28T03:38:51.377Z,101061.63
2023-01-28T03:41:25.160Z,101060.29
2023-01-28T03:43:56.305Z,101061.30
2023-01-28T03:46:24.381Z,101060.76
2023-01-28T03:48:52.994Z,101059.95
2023-01-28T03:51:21.540Z,101059.84
2023-01-28T03:53:50.727Z,101060.68
2023-01-28T03:56:19.941Z,101066.11
2023-01-28T03:58:56.692Z,101060.70
2023-01-28T04:02:46.294Z,101064.34
2023-01-28T04:05:16.389Z,101061.91
2023-01-28T04:07:51.699Z,101064.71
2023-01-28T04:10:27.248Z,101059.98
2023-01-28T04:12:58.655Z,101058.27
2023-01-28T04:15:27.045Z,101057.29
2023-01-28T04:17:56.168Z,101056.30
2023-01-28T04:20:28.114Z,101057.71
2023-01-28T04:22:58.761Z,101056.86
2023-01-28T04:25:27.052Z,101052.42
2023-01-28T04:27:55.297Z,101054.36
2023-01-28T04:34:36.936Z,101057.55
2023-01-28T04:37:25.160Z,101060.89
2023-01-28T04:40:12.303Z,101063.09
2023-01-28T04:43:00.478Z,101064.98
2023-01-28T04:45:50.938Z,101066.10
2023-01-28T04:48:36.521Z,101067.58
2023-01-28T04:51:27.710Z,101068.41
2023-01-28T04:54:18.840Z,101071.59
2023-01-28T04:56:46.877Z,101072.73
2023-01-28T04:59:15.305Z,101070.33
2023-01-28T05:01:44.152Z,101070.47
2023-01-28T05:04:12.569Z,101072.48
2023-01-28T05:06:40.795Z,101069.15
2023-01-28T05:09:13.201Z,101070.98
2023-01-28T05:11:42.444Z,101071.70
2023-01-28T05:14:10.357Z,101068.77
2023-01-28T05:17:01.330Z,101074.20
2023-01-28T05:20:16.048Z,101083.13
2023-01-28T05:22:46.537Z,101079.52
2023-01-28T05:25:20.933Z,101080.36
2023-01-28T05:27:52.687Z,101081.70
2023-01-28T05:30:21.824Z,101080.29
2023-01-28T05:32:50.463Z,101084.67
2023-01-28T05:35:22.917Z,101088.09
2023-01-28T05:37:51.713Z,101091.63
2023-01-28T05:40:20.666Z,101088.65
2023-01-28T05:42:48.728Z,101088.68
2023-01-28T05:45:35.319Z,101087.77
2023-01-28T05:48:16.503Z,101085.06
2023-01-28T05:51:05.450Z,101087.52
2023-01-28T05:53:38.866Z,101087.30
2023-01-28T05:56:07.810Z,101088.73
2023-01-28T05:58:37.066Z,101086.08
2023-01-28T06:01:05.141Z,101088.52
2023-01-28T06:03:39.965Z,101088.34
2023-01-28T06:06:07.938Z,101089.02
2023-01-28T06:08:37.591Z,101091.58
2023-01-28T06:11:05.825Z,101090.13
2023-01-28T06:13:35.138Z,101092.16
2023-01-28T06:16:03.955Z,101095.35
2023-01-28T06:19:23.081Z,101099.02
2023-01-28T06:21:51.718Z,101102.75
2023-01-28T06:24:21.504Z,101105.26
2023-01-28T06:26:50.110Z,101104.83
2023-01-28T06:29:19.454Z,101106.23
2023-01-28T06:31:47.693Z,101109.33
2023-01-28T06:34:15.557Z,101110.26
2023-01-28T06:36:43.521Z,101111.53
2023-01-28T06:39:11.707Z,101115.15
2023-01-28T06:41:39.709Z,101112.78
2023-01-28T06:44:07.664Z,101116.99
2023-01-28T06:46:35.945Z,101118.80
2023-01-28T06:49:04.169Z,101119.92
2023-01-28T06:51:32.258Z,101116.77
2023-01-28T06:54:00.548Z,101119.78
2023-01-28T06:56:28.549Z,101123.22
2023-01-28T06:58:56.463Z,101125.90
2023-01-28T07:01:24.845Z,101130.76
2023-01-28T07:03:52.797Z,101131.84
2023-01-28T07:06:20.697Z,101139.13
2023-01-28T07:08:49.151Z,101137.78
2023-01-28T07:11:17.729Z,101145.70
2023-01-28T07:13:46.644Z,101145.09
2023-01-28T07:16:14.730Z,101150.02
2023-01-28T07:18:42.808Z,101148.77
2023-01-28T07:21:10.775Z,101148.59
2023-01-28T07:23:40.006Z,101149.00
2023-01-28T07:26:08.014Z,101147.59
2023-01-28T07:28:35.887Z,101148.17
2023-01-28T07:31:04.056Z,101147.36
2023-01-28T07:33:32.093Z,101149.66
2023-01-28T07:36:00.146Z,101150.27
2023-01-28T07:38:28.098Z,101152.55
2023-01-28T07:40:56.124Z,101154.16
2023-01-28T07:43:24.223Z,101159.48
2023-01-28T07:45:52.166Z,101159.48
2023-01-28T07:48:20.546Z,101158.90
2023-01-28T07:50:49.789Z,101160.05
2023-01-28T07:53:19.072Z,101160.37
2023-01-28T07:55:47.089Z,101157.94
2023-01-28T07:58:15.034Z,101152.95
2023-01-28T08:00:43.029Z,101150.58
2023-01-28T08:03:15.769Z,101155.41
2023-01-28T08:05:49.593Z,101156.58
2023-01-28T08:08:17.615Z,101156.88
2023-01-28T08:10:46.076Z,101156.72
2023-01-28T08:13:15.429Z,101153.59
2023-01-28T08:15:44.753Z,101154.62
2023-01-28T08:18:14.895Z,101157.29
2023-01-28T08:20:44.900Z,101152.05
2023-01-28T08:23:18.209Z,101151.15
2023-01-28T08:25:47.688Z,101154.64
2023-01-28T08:28:17.067Z,101153.09
2023-01-28T08:30:45.383Z,101154.44
2023-01-28T08:33:15.858Z,101150.77
2023-01-28T08:35:44.224Z,101151.35
2023-01-28T08:38:13.775Z,101145.33
2023-01-28T08:40:41.727Z,101151.36
2023-01-28T08:43:09.707Z,101149.46
2023-01-28T08:45:40.577Z,101151.77
2023-01-28T08:48:14.891Z,101149.73
2023-01-28T08:50:43.543Z,101149.52
2023-01-28T08:53:14.298Z,101153.30
2023-01-28T08:55:42.598Z,101157.58
2023-01-28T08:58:14.215Z,101159.05
2023-01-28T09:00:43.452Z,101158.58
2023-01-28T09:03:11.904Z,101162.88
2023-01-28T09:05:40.286Z,101165.70
2023-01-28T09:08:13.585Z,101168.59
2023-01-28T09:10:42.373Z,101164.02
2023-01-28T09:13:14.176Z,101168.45
2023-01-28T09:15:42.764Z,101170.59
2023-01-28T09:18:10.969Z,101176.14
2023-01-28T09:20:39.551Z,101176.60
2023-01-28T09:23:07.542Z,101175.69
2023-01-28T09:25:38.785Z,101177.30
2023-01-28T09:28:06.796Z,101183.66
2023-01-28T09:30:37.269Z,101184.73
2023-01-28T09:33:06.539Z,101188.58
2023-01-28T09:35:35.166Z,101189.19
2023-01-28T09:38:03.378Z,101193.23
2023-01-28T09:40:40.282Z,101192.13
2023-01-28T09:43:47.463Z,101190.43
2023-01-28T09:46:18.557Z,101189.17
2023-01-28T09:48:51.427Z,101190.56
2023-01-28T09:51:31.842Z,101190.30
2023-01-28T09:54:06.027Z,101186.08
2023-01-28T09:56:44.102Z,101182.59
2023-01-28T09:59:21.153Z,101181.58
2023-01-28T10:01:49.509Z,101177.42
2023-01-28T10:05:00.201Z,101177.05
2023-01-28T10:07:42.024Z,101177.55
2023-01-28T10:10:16.580Z,101183.98
2023-01-28T10:12:50.704Z,101181.12
2023-01-28T10:15:47.108Z,101169.63
2023-01-28T10:18:17.956Z,101167.90
2023-01-28T10:20:55.349Z,101165.93
2023-01-28T10:23:41.343Z,101166.51
2023-01-28T10:26:23.006Z,101165.65
2023-01-28T10:28:56.615Z,101163.94
2023-01-28T10:31:31.886Z,101159.47
2023-01-28T10:34:00.759Z,101161.69
2023-01-28T10:36:29.593Z,101156.46
2023-01-28T10:38:58.393Z,101157.23
2023-01-28T10:41:26.882Z,101155.38
2023-01-28T10:43:57.200Z,101157.91
2023-01-28T10:46:34.926Z,101157.23
2023-01-28T10:49:11.172Z,101158.06
2023-01-28T10:51:41.781Z,101157.41
2023-01-28T10:54:26.127Z,101153.89
2023-01-28T10:57:05.891Z,101149.75
2023-01-28T10:59:42.085Z,101148.51
2023-01-28T11:04:37.998Z,101150.73
2023-01-28T11:07:17.405Z,101151.67
2023-01-28T11:09:47.994Z,101153.27
2023-01-28T11:12:29.369Z,101149.34
2023-01-28T11:15:03.549Z,101142.02
2023-01-28T11:17:50.051Z,101140.99
2023-01-28T11:20:22.925Z,101138.74
2023-01-28T11:22:51.873Z,101138.42
2023-01-28T11:25:29.482Z,101132.39
2023-01-28T11:27:59.461Z,101134.44
2023-01-28T11:30:37.595Z,101134.54
2023-01-28T11:33:18.829Z,101136.66
2023-01-28T11:35:55.225Z,101130.97
2023-01-28T11:38:26.020Z,101128.39
2023-01-28T11:40:56.805Z,101129.29
2023-01-28T11:43:30.361Z,101129.95
2023-01-28T11:46:05.406Z,101125.72
2023-01-28T11:49:07.411Z,101117.59
2023-01-28T11:51:45.692Z,101121.29
2023-01-28T11:54:35.196Z,101128.00
2023-01-28T11:57:24.131Z,101127.61
2023-01-28T12:00:16.962Z,101126.78
2023-01-28T12:03:03.035Z,101129.30
2023-01-28T12:05:48.892Z,101126.51
2023-01-28T12:08:21.154Z,101124.80
2023-01-28T12:11:17.159Z,101119.56
2023-01-28T12:14:10.429Z,101127.84
2023-01-28T12:16:50.396Z,101128.71
2023-01-28T12:19:30.373Z,101123.22
2023-01-28T12:22:13.678Z,101121.02
2023-01-28T12:24:50.766Z,101121.08
2023-01-28T12:27:51.161Z,101121.34
2023-01-28T12:30:34.432Z,101125.41
2023-01-28T12:33:25.361Z,101118.84
2023-01-28T12:36:07.166Z,101120.24
2023-01-28T12:39:02.367Z,101116.65
2023-01-28T12:41:40.042Z,101116.45
2023-01-28T12:44:38.508Z,101111.98
2023-01-28T12:47:10.907Z,101108.20
2023-01-28T12:49:50.878Z,101108.70
2023-01-28T12:52:33.191Z,101109.96
2023-01-28T12:55:43.107Z,101113.79
2023-01-28T12:58:23.827Z,101117.65
2023-01-28T13:01:00.084Z,101121.09
2023-01-28T13:03:35.473Z,101120.96
2023-01-28T13:06:10.646Z,101118.52
2023-01-28T13:08:38.780Z,101122.60
2023-01-28T13:11:12.367Z,101122.48
2023-01-28T13:13:42.815Z,101122.72
2023-01-28T13:16:12.943Z,101126.30
2023-01-28T13:18:41.064Z,101122.33
2023-01-28T13:21:17.167Z,101116.27
2023-01-28T13:23:47.618Z,101120.20
2023-01-28T13:26:18.594Z,101122.17
2023-01-28T13:28:49.209Z,101127.95
2023-01-28T13:31:21.127Z,101127.08
2023-01-28T13:34:02.805Z,101124.20
2023-01-28T13:36:34.356Z,101125.71
2023-01-28T13:39:06.250Z,101126.87
2023-01-28T13:41:46.130Z,101129.55
2023-01-28T13:44:34.351Z,101128.14
2023-01-28T13:47:09.107Z,101131.34
2023-01-28T13:49:47.822Z,101131.18
2023-01-28T13:52:23.266Z,101138.23
2023-01-28T13:55:06.389Z,101136.70
2023-01-28T13:58:04.631Z,101135.36
2023-01-28T14:00:35.636Z,101132.52
2023-01-28T14:03:15.691Z,101130.84
2023-01-28T14:05:58.658Z,101129.14
2023-01-28T14:08:38.712Z,101135.17
2023-01-28T14:14:49.040Z,101124.70
2023-01-28T14:17:28.981Z,101126.46
2023-01-28T14:19:58.590Z,101129.36
2023-01-28T14:22:27.073Z,101127.70
2023-01-28T14:25:00.255Z,101132.71
2023-01-28T14:27:35.392Z,101134.66
2023-01-28T14:30:18.525Z,101136.06
2023-01-28T14:32:48.410Z,101135.45
2023-01-28T14:35:20.975Z,101132.89
2023-01-28T14:37:49.080Z,101136.28
2023-01-28T14:40:18.009Z,101134.80
2023-01-28T14:42:49.164Z,101132.39
2023-01-28T14:45:35.730Z,101129.80
2023-01-28T14:48:43.355Z,101129.61
2023-01-28T14:51:31.215Z,101136.84
2023-01-28T14:54:13.728Z,101133.16
2023-01-28T14:57:00.540Z,101135.57
2023-01-28T14:59:39.191Z,101137.14
2023-01-28T15:02:18.373Z,101136.55
2023-01-28T15:04:47.021Z,101138.15
2023-01-28T15:07:24.329Z,101138.48
2023-01-28T15:10:07.488Z,101140.20
2023-01-28T15:12:39.655Z,101141.72
2023-01-28T15:15:20.811Z,101143.21
2023-01-28T15:17:49.735Z,101147.77
2023-01-28T15:20:23.960Z,101147.16
2023-01-28T15:22:53.693Z,101147.97
2023-01-28T15:25:24.298Z,101153.92
2023-01-28T15:27:56.166Z,101154.71
2023-01-28T15:30:30.150Z,101159.27
2023-01-28T15:33:11.962Z,101162.60
2023-01-28T15:35:50.921Z,101164.98
2023-01-28T15:38:19.151Z,101159.58
2023-01-28T15:40:52.192Z,101163.80
2023-01-28T15:43:24.445Z,101168.36
2023-01-28T15:45:56.025Z,101167.69
2023-01-28T15:48:27.464Z,101168.48
2023-01-28T15:51:05.876Z,101171.23
2023-01-28T15:53:42.180Z,101171.30
2023-01-28T15:56:15.645Z,101172.94
2023-01-28T15:58:43.720Z,101171.69
2023-01-28T16:01:18.510Z,101177.45
2023-01-28T16:04:00.970Z,101174.86
2023-01-28T16:06:36.255Z,101175.12
2023-01-28T16:09:37.269Z,101167.39
2023-01-28T16:12:12.463Z,101169.64
2023-01-28T16:14:45.422Z,101170.09
2023-01-28T16:17:19.837Z,101172.68
2023-01-28T16:19:51.331Z,101172.98
2023-01-28T16:22:22.261Z,101176.10
2023-01-28T16:24:52.956Z,101177.40
2023-01-28T16:27:26.486Z,101179.08
2023-01-28T16:29:54.375Z,101182.80
2023-01-28T16:32:39.556Z,101180.04
2023-01-28T16:35:18.477Z,101176.33
2023-01-28T16:37:48.494Z,101173.41
2023-01-28T16:40:22.334Z,101176.63
2023-01-28T16:42:53.583Z,101172.23
2023-01-28T16:45:25.907Z,101176.08
2023-01-28T16:47:54.006Z,101180.08
2023-01-28T16:50:23.177Z,101183.09
2023-01-28T16:52:54.312Z,101182.77
2023-01-28T16:55:22.744Z,101187.98
2023-01-28T16:57:53.910Z,101188.37
2023-01-28T17:00:27.571Z,101186.45
2023-01-28T17:02:55.547Z,101187.59
2023-01-28T17:05:23.563Z,101192.54
2023-01-28T17:07:54.241Z,101185.04
2023-01-28T17:10:22.397Z,101184.46
2023-01-28T17:12:50.465Z,101176.48
2023-01-28T17:15:19.136Z,101177.05
2023-01-28T17:17:49.403Z,101187.67
2023-01-28T17:20:17.518Z,101184.51
2023-01-28T17:22:45.877Z,101180.25
2023-01-28T17:25:14.937Z,101179.10
2023-01-28T17:27:43.292Z,101181.15
2023-01-28T17:30:11.803Z,101180.32
2023-01-28T17:32:39.764Z,101174.47
2023-01-28T17:35:08.392Z,101176.10
2023-01-28T17:37:38.351Z,101180.80
2023-01-28T17:40:07.225Z,101183.12
2023-01-28T17:42:35.294Z,101186.35
2023-01-28T17:45:03.487Z,101192.20
2023-01-28T17:47:32.107Z,101193.98
2023-01-28T17:50:00.502Z,101190.89
2023-01-28T17:52:29.133Z,101195.16
2023-01-28T17:54:57.348Z,101192.89
2023-01-28T17:57:25.210Z,101198.09
2023-01-28T17:59:53.422Z,101199.44
2023-01-28T18:02:21.482Z,101202.86
2023-01-28T18:04:49.523Z,101204.40
2023-01-28T18:07:17.529Z,101206.46
2023-01-28T18:09:48.593Z,101205.48
2023-01-28T18:12:16.632Z,101200.31
2023-01-28T18:14:44.803Z,101203.55
2023-01-28T18:17:13.132Z,101202.80
2023-01-28T18:19:41.097Z,101203.90
2023-01-28T18:22:09.150Z,101208.16
2023-01-28T18:24:37.490Z,101214.66
2023-01-28T18:27:05.656Z,101216.71
2023-01-28T18:29:33.648Z,101216.24
2023-01-28T18:32:01.659Z,101220.45
2023-01-28T18:34:31.652Z,101224.43
2023-01-28T18:37:00.329Z,101229.52
2023-01-28T18:39:30.316Z,101229.52
2023-01-28T18:41:59.158Z,101232.02
2023-01-28T18:44:30.081Z,101228.40
2023-01-28T18:46:58.079Z,101227.71
2023-01-28T18:49:26.037Z,101225.31
2023-01-28T18:51:54.103Z,101229.89
2023-01-28T18:54:23.278Z,101232.17
2023-01-28T18:56:51.539Z,101226.77
2023-01-28T18:59:19.757Z,101223.35
2023-01-28T19:04:34.961Z,101219.95
2023-01-28T19:07:12.108Z,101217.98
2023-01-28T19:09:48.976Z,101215.90
2023-01-28T19:12:16.859Z,101219.69
2023-01-28T19:14:44.724Z,101216.21
2023-01-28T19:17:13.008Z,101214.16
2023-01-28T19:19:40.883Z,101216.39
2023-01-28T19:22:09.557Z,101216.80
2023-01-28T19:24:37.525Z,101217.30
2023-01-28T19:27:05.975Z,101222.84
2023-01-28T19:29:34.118Z,101223.57
2023-01-28T19:32:02.247Z,101227.75
2023-01-28T19:34:30.983Z,101227.45
2023-01-28T19:36:59.827Z,101226.38
2023-01-28T19:39:27.668Z,101227.56
2023-01-28T19:41:55.755Z,101233.25
2023-01-28T19:44:23.534Z,101234.60
2023-01-28T19:46:51.796Z,101232.72
2023-01-28T19:49:20.051Z,101232.09
2023-01-28T19:51:48.333Z,101233.27
2023-01-28T19:54:16.346Z,101237.54
2023-01-28T19:56:44.329Z,101238.30
2023-01-28T19:59:12.947Z,101236.98
2023-01-28T20:01:41.294Z,101241.28
2023-01-28T20:04:09.177Z,101237.11
2023-01-28T20:06:37.086Z,101237.58
2023-01-28T20:09:17.453Z,101239.71
2023-01-28T20:11:45.868Z,101245.23
2023-01-28T20:14:15.029Z,101245.14
2023-01-28T20:16:42.922Z,101240.34
2023-01-28T20:19:16.944Z,101243.92
2023-01-28T20:21:46.291Z,101242.55
2023-01-28T20:24:15.360Z,101239.98
2023-01-28T20:26:43.942Z,101240.44
2023-01-28T20:29:20.744Z,101241.38
2023-01-28T20:32:01.085Z,101250.69
2023-01-28T20:34:36.897Z,101258.38
2023-01-28T20:37:06.560Z,101269.11
2023-01-28T20:39:34.502Z,101266.69
2023-01-28T20:42:03.517Z,101263.23
2023-01-28T20:44:32.211Z,101260.34
2023-01-28T20:47:00.512Z,101264.31
2023-01-28T20:49:28.921Z,101260.44
2023-01-28T20:51:57.220Z,101256.27
2023-01-28T20:54:25.603Z,101253.65
2023-01-28T20:56:53.777Z,101257.16
2023-01-28T20:59:22.624Z,101263.13
2023-01-28T21:01:50.618Z,101271.39
2023-01-28T21:04:18.520Z,101277.52
2023-01-28T21:06:46.487Z,101279.30
2023-01-28T21:09:15.325Z,101278.83
2023-01-28T21:11:43.289Z,101284.52
2023-01-28T21:14:16.739Z,101283.46
2023-01-28T21:16:44.800Z,101281.91
2023-01-28T21:19:12.908Z,101279.30
2023-01-28T21:21:43.014Z,101283.91
2023-01-28T21:24:14.045Z,101279.65
2023-01-28T21:26:41.883Z,101273.59
2023-01-28T21:29:09.929Z,101275.95
2023-01-28T21:31:39.442Z,101273.70
2023-01-28T21:34:09.111Z,101273.28
2023-01-28T21:36:37.568Z,101267.70
2023-01-28T21:39:05.435Z,101264.91
2023-01-28T21:41:33.707Z,101254.70
2023-01-28T21:44:01.900Z,101250.64
2023-01-28T21:46:32.267Z,101247.19
2023-01-28T21:49:02.246Z,101256.02
2023-01-28T21:51:36.483Z,101266.30
2023-01-28T21:54:06.679Z,101265.02
2023-01-28T21:56:34.538Z,101260.48
2023-01-28T21:59:21.062Z,101251.05
2023-01-28T22:01:49.503Z,101251.45
2023-01-28T22:04:17.527Z,101257.61
2023-01-28T22:06:45.619Z,101259.23
2023-01-28T22:09:14.605Z,101253.89
2023-01-28T22:11:45.170Z,101246.30
2023-01-28T22:14:13.649Z,101239.08
2023-01-28T22:16:42.223Z,101224.00
2023-01-28T22:19:11.062Z,101218.57
2023-01-28T22:21:44.253Z,101211.20
2023-01-28T22:24:24.548Z,101212.83
2023-01-28T22:26:54.080Z,101214.15
2023-01-28T22:29:23.622Z,101219.27
2023-01-28T22:31:53.320Z,101217.48
2023-01-28T22:34:22.128Z,101218.23
2023-01-28T22:36:51.173Z,101221.34
2023-01-28T22:39:19.196Z,101224.64
2023-01-28T22:41:47.784Z,101214.77
2023-01-28T22:44:16.144Z,101224.05
2023-01-28T22:46:44.122Z,101223.68
2023-01-28T22:49:15.499Z,101229.71
2023-01-28T22:51:43.751Z,101229.43
2023-01-28T22:54:12.126Z,101236.94
2023-01-28T22:56:40.248Z,101238.77
2023-01-28T22:59:08.192Z,101245.18
2023-01-28T23:01:36.772Z,101242.84
2023-01-28T23:04:04.797Z,101238.89
2023-01-28T23:06:33.708Z,101250.38
2023-01-28T23:09:01.772Z,101254.11
2023-01-28T23:11:29.958Z,101260.54
2023-01-28T23:14:19.201Z,101270.70
2023-01-28T23:17:06.741Z,101269.52
2023-01-28T23:19:53.107Z,101266.29
2023-01-28T23:22:50.591Z,101272.35
2023-01-28T23:25:20.006Z,101266.41
2023-01-28T23:27:48.071Z,101260.06
2023-01-28T23:30:16.691Z,101255.10
2023-01-28T23:32:49.506Z,101248.30
2023-01-28T23:35:19.375Z,101248.96
2023-01-28T23:37:48.532Z,101245.39
2023-01-28T23:40:17.018Z,101241.40
2023-01-28T23:42:49.492Z,101242.25
2023-01-28T23:45:18.826Z,101250.05
2023-01-28T23:47:47.152Z,101249.52
2023-01-28T23:50:15.872Z,101251.75
2023-01-28T23:52:44.084Z,101250.55
2023-01-28T23:55:11.859Z,101249.41
2023-01-28T23:57:39.764Z,101248.48
